createdAt,value
2024-02-06T00:01:54.435Z,8.38
2024-02-06T00:04:21.327Z,8.85
2024-02-06T00:06:48.159Z,8.23
2024-02-06T00:09:15.269Z,7.55
2024-02-06T00:11:41.896Z,8.25
2024-02-06T00:14:11.442Z,8.30
2024-02-06T00:16:39.022Z,8.30
2024-02-06T00:19:09.032Z,7.50
2024-02-06T00:21:35.651Z,7.63
2024-02-06T00:24:02.314Z,7.32
2024-02-06T00:26:29.028Z,7.78
2024-02-06T00:28:56.059Z,7.72
2024-02-06T00:31:23.535Z,8.77
2024-02-06T00:33:50.846Z,8.20
2024-02-06T00:36:17.557Z,7.53
2024-02-06T00:38:44.147Z,7.43
2024-02-06T00:41:12.553Z,7.47
2024-02-06T00:43:39.367Z,6.22
2024-02-06T00:46:06.102Z,7.25
2024-02-06T00:48:33.005Z,7.53
2024-02-06T00:50:59.772Z,7.07
2024-02-06T00:53:26.386Z,7.30
2024-02-06T00:55:52.951Z,7.03
2024-02-06T00:58:19.559Z,7.03
2024-02-06T01:00:46.382Z,7.05
2024-02-06T01:03:13.021Z,6.57
2024-02-06T01:05:39.592Z,6.78
2024-02-06T01:08:06.544Z,6.72
2024-02-06T01:10:33.310Z,6.30
2024-02-06T01:12:59.946Z,6.88
2024-02-06T01:15:26.504Z,7.13
2024-02-06T01:17:53.071Z,6.18
2024-02-06T01:20:19.727Z,6.25
2024-02-06T01:22:46.316Z,6.68
2024-02-06T01:25:14.162Z,6.30
2024-02-06T01:27:40.918Z,6.10
2024-02-06T01:30:08.143Z,6.18
2024-02-06T01:32:34.797Z,6.07
2024-02-06T01:35:01.524Z,5.90
2024-02-06T01:37:28.188Z,5.43
2024-02-06T01:39:54.874Z,5.70
2024-02-06T01:42:21.503Z,7.28
2024-02-06T01:44:48.074Z,6.00
2024-02-06T01:47:15.245Z,5.03
2024-02-06T01:49:44.298Z,6.22
2024-02-06T01:52:12.893Z,5.93
2024-02-06T01:54:39.470Z,5.75
2024-02-06T01:57:06.759Z,5.75
2024-02-06T01:59:33.505Z,5.80
2024-02-06T02:02:00.399Z,5.68
2024-02-06T02:04:27.309Z,6.10
2024-02-06T02:06:55.767Z,5.30
2024-02-06T02:09:22.699Z,4.82
2024-02-06T02:11:49.405Z,5.32
2024-02-06T02:14:16.310Z,5.40
2024-02-06T02:16:42.943Z,5.70
2024-02-06T02:19:09.707Z,5.30
2024-02-06T02:21:36.480Z,4.88
2024-02-06T02:24:04.930Z,5.03
2024-02-06T02:26:32.018Z,5.30
2024-02-06T02:28:59.022Z,4.32
2024-02-06T02:31:26.647Z,4.72
2024-02-06T02:33:55.145Z,4.72
2024-02-06T02:36:22.012Z,4.93
2024-02-06T02:38:48.581Z,4.50
2024-02-06T02:41:15.280Z,4.82
2024-02-06T02:43:41.944Z,4.88
2024-02-06T02:46:08.573Z,4.88
2024-02-06T02:48:35.959Z,5.20
2024-02-06T02:51:02.688Z,4.82
2024-02-06T02:53:29.297Z,5.22
2024-02-06T02:55:55.887Z,4.70
2024-02-06T02:58:22.507Z,4.50
2024-02-06T03:00:49.349Z,4.55
2024-02-06T03:03:16.022Z,4.32
2024-02-06T03:05:42.682Z,4.60
2024-02-06T03:08:10.454Z,4.72
2024-02-06T03:10:37.119Z,4.32
2024-02-06T03:13:04.164Z,3.95
2024-02-06T03:15:30.932Z,4.28
2024-02-06T03:17:57.791Z,4.07
2024-02-06T03:20:24.424Z,3.75
2024-02-06T03:22:51.192Z,3.97
2024-02-06T03:25:18.047Z,4.40
2024-02-06T03:27:46.632Z,4.15
2024-02-06T03:30:14.661Z,4.00
2024-02-06T03:32:41.503Z,3.38
2024-02-06T03:35:08.921Z,4.28
2024-02-06T03:37:36.008Z,4.80
2024-02-06T03:40:03.133Z,4.20
2024-02-06T03:42:29.715Z,3.53
2024-02-06T03:44:56.318Z,3.83
2024-02-06T03:47:22.844Z,3.60
2024-02-06T03:49:49.647Z,4.20
2024-02-06T03:52:16.404Z,4.63
2024-02-06T03:54:43.030Z,3.95
2024-02-06T03:57:10.975Z,4.10
2024-02-06T03:59:37.504Z,3.95
2024-02-06T04:02:04.544Z,3.70
2024-02-06T04:04:31.530Z,4.03
2024-02-06T04:06:58.329Z,4.00
2024-02-06T04:09:25.067Z,4.13
2024-02-06T04:11:51.818Z,3.50
2024-02-06T04:14:18.429Z,3.78
2024-02-06T04:16:45.640Z,3.55
2024-02-06T04:19:12.785Z,3.45
2024-02-06T04:21:39.715Z,4.35
2024-02-06T04:24:07.226Z,3.80
2024-02-06T04:26:33.869Z,3.40
2024-02-06T04:29:00.477Z,3.22
2024-02-06T04:31:27.099Z,3.72
2024-02-06T04:33:54.070Z,3.38
2024-02-06T04:36:22.110Z,3.55
2024-02-06T04:38:48.690Z,3.70
2024-02-06T04:41:15.255Z,3.33
2024-02-06T04:43:42.997Z,4.03
2024-02-06T04:46:10.011Z,3.58
2024-02-06T04:48:36.745Z,3.75
2024-02-06T04:51:03.353Z,3.55
2024-02-06T04:53:32.629Z,3.35
2024-02-06T04:55:59.492Z,3.25
2024-02-06T04:58:26.590Z,3.38
2024-02-06T05:00:53.305Z,3.05
2024-02-06T05:03:20.416Z,3.42
2024-02-06T05:05:47.028Z,3.15
2024-02-06T05:08:13.658Z,3.60
2024-02-06T05:10:40.988Z,3.20
2024-02-06T05:13:08.524Z,3.63
2024-02-06T05:15:35.181Z,3.22
2024-02-06T05:18:01.973Z,3.72
2024-02-06T05:20:28.709Z,3.80
2024-02-06T05:22:55.336Z,3.10
2024-02-06T05:25:24.618Z,3.20
2024-02-06T05:27:51.816Z,3.63
2024-02-06T05:30:19.548Z,3.97
2024-02-06T05:32:46.250Z,4.63
2024-02-06T05:35:13.168Z,5.10
2024-02-06T05:37:40.169Z,5.38
2024-02-06T05:40:08.311Z,5.00
2024-02-06T05:42:34.987Z,5.40
2024-02-06T05:45:01.590Z,5.95
2024-02-06T05:47:28.959Z,6.15
2024-02-06T05:49:55.881Z,6.25
2024-02-06T05:52:22.800Z,6.15
2024-02-06T05:54:49.595Z,6.95
2024-02-06T05:57:16.208Z,6.45
2024-02-06T05:59:42.852Z,7.68
2024-02-06T06:02:09.741Z,8.02
2024-02-06T06:04:36.767Z,7.82
2024-02-06T06:07:03.609Z,8.15
2024-02-06T06:09:30.602Z,8.90
2024-02-06T06:11:57.342Z,8.52
2024-02-06T06:14:23.959Z,8.48
2024-02-06T06:16:50.533Z,8.38
2024-02-06T06:19:17.221Z,8.40
2024-02-06T06:21:44.226Z,8.45
2024-02-06T06:24:11.255Z,8.73
2024-02-06T06:26:38.743Z,9.05
2024-02-06T06:29:05.817Z,9.38
2024-02-06T06:31:32.475Z,9.07
2024-02-06T06:33:59.241Z,9.52
2024-02-06T06:36:26.034Z,8.77
2024-02-06T06:38:52.605Z,9.68
2024-02-06T06:41:19.223Z,9.90
2024-02-06T06:43:46.081Z,8.68
2024-02-06T06:46:12.749Z,9.25
2024-02-06T06:48:39.577Z,8.10
2024-02-06T06:51:06.164Z,9.13
2024-02-06T06:53:32.891Z,9.38
2024-02-06T06:55:59.513Z,8.45
2024-02-06T06:58:26.153Z,8.35
2024-02-06T07:00:54.418Z,9.15
2024-02-06T07:03:21.421Z,8.23
2024-02-06T07:05:52.490Z,9.68
2024-02-06T07:08:19.245Z,9.43
2024-02-06T07:10:45.983Z,9.18
2024-02-06T07:13:12.850Z,8.32
2024-02-06T07:15:39.464Z,9.57
2024-02-06T07:18:06.385Z,9.80
2024-02-06T07:20:33.095Z,9.07
2024-02-06T07:22:59.734Z,8.40
2024-02-06T07:25:26.318Z,9.23
2024-02-06T07:27:52.981Z,8.55
2024-02-06T07:30:27.593Z,8.88
2024-02-06T07:33:00.904Z,9.80
2024-02-06T07:35:27.657Z,8.18
2024-02-06T07:37:54.292Z,8.85
2024-02-06T07:42:50.833Z,8.95
2024-02-06T07:45:17.453Z,9.00
2024-02-06T07:47:45.100Z,8.63
2024-02-06T07:52:38.480Z,8.90
2024-02-06T07:55:05.733Z,8.30
2024-02-06T07:57:32.353Z,8.70
2024-02-06T07:59:58.952Z,8.93
2024-02-06T08:02:25.758Z,8.40
2024-02-06T08:04:54.574Z,8.32
2024-02-06T08:07:21.971Z,8.48
2024-02-06T08:09:49.063Z,9.05
2024-02-06T08:12:15.664Z,7.55
2024-02-06T08:14:43.175Z,8.45
2024-02-06T08:17:09.810Z,7.32
2024-02-06T08:19:36.526Z,9.43
2024-02-06T08:22:03.216Z,9.05
2024-02-06T08:24:29.837Z,8.15
2024-02-06T08:26:56.886Z,8.13
2024-02-06T08:29:23.610Z,7.78
2024-02-06T08:31:50.843Z,7.97
2024-02-06T08:34:17.689Z,8.65
2024-02-06T08:36:44.405Z,7.03
2024-02-06T08:39:10.993Z,7.63
2024-02-06T08:41:37.626Z,7.15
2024-02-06T08:44:04.465Z,6.70
2024-02-06T08:46:31.115Z,6.80
2024-02-06T08:48:58.082Z,7.07
2024-02-06T08:51:24.775Z,6.82
2024-02-06T08:53:51.437Z,5.47
2024-02-06T08:56:18.004Z,6.05
2024-02-06T08:58:44.692Z,6.40
2024-02-06T09:01:12.471Z,5.95
2024-02-06T09:03:39.677Z,7.32
2024-02-06T09:06:07.004Z,6.70
2024-02-06T09:08:34.506Z,6.43
2024-02-06T09:11:01.228Z,6.25
2024-02-06T09:13:27.895Z,7.15
2024-02-06T09:15:54.520Z,6.65
2024-02-06T09:18:21.358Z,6.30
2024-02-06T09:20:48.360Z,5.43
2024-02-06T09:23:14.920Z,6.75
2024-02-06T09:25:44.288Z,5.93
2024-02-06T09:28:10.867Z,6.38
2024-02-06T09:30:40.792Z,6.32
2024-02-06T09:33:08.191Z,5.95
2024-02-06T09:35:34.944Z,5.95
2024-02-06T09:38:01.691Z,6.80
2024-02-06T09:40:28.392Z,5.38
2024-02-06T09:42:56.202Z,6.03
2024-02-06T09:45:23.057Z,4.85
2024-02-06T09:47:49.666Z,5.97
2024-02-06T09:50:17.644Z,4.72
2024-02-06T09:52:49.165Z,5.65
2024-02-06T09:55:16.708Z,5.13
2024-02-06T09:57:45.836Z,5.20
2024-02-06T10:00:15.667Z,4.60
2024-02-06T10:02:44.295Z,5.55
2024-02-06T10:05:17.835Z,5.53
2024-02-06T10:10:15.663Z,5.30
2024-02-06T10:12:44.859Z,5.35
2024-02-06T10:15:20.170Z,5.18
2024-02-06T10:17:46.990Z,5.60
2024-02-06T10:20:14.390Z,5.35
2024-02-06T10:22:42.468Z,5.25
2024-02-06T10:25:12.853Z,5.35
2024-02-06T10:27:39.486Z,4.53
2024-02-06T10:30:11.208Z,4.95
2024-02-06T10:32:39.404Z,5.03
2024-02-06T10:35:09.028Z,4.70
2024-02-06T10:37:40.326Z,5.00
2024-02-06T10:40:12.666Z,5.30
2024-02-06T10:43:24.741Z,4.80
2024-02-06T10:45:28.151Z,4.88
2024-02-06T10:48:02.005Z,4.60
2024-02-06T10:50:29.499Z,4.75
2024-02-06T10:52:57.057Z,4.32
2024-02-06T10:55:24.372Z,5.15
2024-02-06T10:58:08.516Z,4.80
2024-02-06T11:00:36.754Z,4.20
2024-02-06T11:03:10.166Z,4.78
2024-02-06T11:05:45.540Z,4.40
2024-02-06T11:08:21.250Z,5.35
2024-02-06T11:10:57.102Z,4.65
2024-02-06T11:13:47.759Z,5.53
2024-02-06T11:16:19.459Z,4.70
2024-02-06T11:19:01.175Z,4.82
2024-02-06T11:21:30.049Z,4.90
2024-02-06T11:23:58.275Z,5.07
2024-02-06T11:26:24.906Z,4.40
2024-02-06T11:28:52.385Z,5.03
2024-02-06T11:31:20.730Z,4.63
2024-02-06T11:33:47.493Z,4.70
2024-02-06T11:36:17.720Z,4.32
2024-02-06T11:38:46.175Z,4.78
2024-02-06T11:41:15.567Z,4.00
2024-02-06T11:43:43.518Z,4.10
2024-02-06T11:46:10.617Z,4.35
2024-02-06T11:48:37.380Z,4.57
2024-02-06T11:51:05.678Z,4.50
2024-02-06T11:53:32.983Z,3.92
2024-02-06T11:56:01.446Z,4.20
2024-02-06T11:58:28.378Z,4.82
2024-02-06T12:00:57.258Z,4.93
2024-02-06T12:03:23.920Z,4.32
2024-02-06T12:05:51.007Z,4.20
2024-02-06T12:08:23.316Z,4.13
2024-02-06T12:10:50.834Z,4.30
2024-02-06T12:13:19.124Z,4.05
2024-02-06T12:15:46.661Z,4.45
2024-02-06T12:18:15.455Z,4.90
2024-02-06T12:20:42.427Z,3.65
2024-02-06T12:23:09.998Z,3.75
2024-02-06T12:25:42.060Z,4.65
2024-02-06T12:28:14.316Z,3.95
2024-02-06T12:30:51.057Z,3.35
2024-02-06T12:33:18.482Z,3.38
2024-02-06T12:35:46.174Z,4.00
2024-02-06T12:38:13.188Z,4.43
2024-02-06T12:40:39.910Z,3.55
2024-02-06T12:43:08.026Z,3.40
2024-02-06T12:45:36.076Z,3.60
2024-02-06T12:48:04.024Z,3.90
2024-02-06T12:50:31.243Z,3.97
2024-02-06T12:53:01.131Z,3.90
2024-02-06T12:55:30.598Z,4.53
2024-02-06T12:57:58.199Z,3.53
2024-02-06T13:00:25.739Z,3.63
2024-02-06T13:03:05.354Z,4.15
2024-02-06T13:05:35.853Z,3.95
2024-02-06T13:08:14.850Z,4.30
2024-02-06T13:10:41.640Z,4.20
2024-02-06T13:13:09.240Z,3.70
2024-02-06T13:15:37.011Z,3.17
2024-02-06T13:18:08.547Z,3.65
2024-02-06T13:20:40.993Z,4.03
2024-02-06T13:23:15.475Z,4.53
2024-02-06T13:25:42.573Z,3.65
2024-02-06T13:28:09.723Z,3.35
2024-02-06T13:30:37.934Z,3.75
2024-02-06T13:33:06.679Z,3.40
2024-02-06T13:35:33.627Z,3.42
2024-02-06T13:38:04.978Z,3.80
2024-02-06T13:40:31.997Z,3.83
2024-02-06T13:43:01.640Z,3.50
2024-02-06T13:45:28.309Z,3.50
2024-02-06T13:47:55.184Z,3.85
2024-02-06T13:50:23.074Z,3.65
2024-02-06T13:52:50.125Z,3.83
2024-02-06T13:55:17.215Z,4.03
2024-02-06T13:57:44.091Z,3.65
2024-02-06T14:00:14.354Z,3.53
2024-02-06T14:02:42.383Z,3.85
2024-02-06T14:05:09.544Z,3.53
2024-02-06T14:07:36.243Z,3.58
2024-02-06T14:10:03.493Z,4.30
2024-02-06T14:12:36.398Z,3.55
2024-02-06T14:15:10.869Z,3.92
2024-02-06T14:17:38.764Z,3.50
2024-02-06T14:22:34.445Z,3.53
2024-02-06T14:25:01.979Z,4.03
2024-02-06T14:27:28.582Z,3.90
2024-02-06T14:29:55.184Z,3.72
2024-02-06T14:32:21.848Z,3.58
2024-02-06T14:34:49.190Z,3.67
2024-02-06T14:37:16.078Z,4.05
2024-02-06T14:39:43.101Z,3.95
2024-02-06T14:42:09.845Z,3.28
2024-02-06T14:44:43.834Z,4.03
2024-02-06T14:47:14.198Z,3.90
2024-02-06T14:49:40.920Z,3.40
2024-02-06T14:52:07.696Z,3.58
2024-02-06T14:54:34.394Z,4.05
2024-02-06T14:57:00.969Z,3.22
2024-02-06T14:59:28.834Z,3.47
2024-02-06T15:01:55.492Z,4.03
2024-02-06T15:04:23.298Z,3.33
2024-02-06T15:06:49.938Z,3.63
2024-02-06T15:09:16.865Z,3.15
2024-02-06T15:11:43.796Z,4.03
2024-02-06T15:14:10.475Z,3.67
2024-02-06T15:16:41.471Z,3.45
2024-02-06T15:19:09.733Z,3.50
2024-02-06T15:21:36.804Z,3.03
2024-02-06T15:24:03.699Z,3.13
2024-02-06T15:26:34.986Z,3.17
2024-02-06T15:29:01.799Z,3.53
2024-02-06T15:31:28.644Z,3.20
2024-02-06T15:33:55.485Z,3.85
2024-02-06T15:36:22.168Z,2.80
2024-02-06T15:38:48.967Z,3.30
2024-02-06T15:41:17.284Z,3.55
2024-02-06T15:43:44.270Z,3.70
2024-02-06T15:46:11.978Z,3.35
2024-02-06T15:48:47.966Z,2.85
2024-02-06T15:51:15.283Z,3.30
2024-02-06T15:53:42.154Z,3.42
2024-02-06T15:56:09.287Z,3.28
2024-02-06T15:58:36.604Z,3.30
2024-02-06T16:01:03.544Z,3.55
2024-02-06T16:03:30.225Z,3.75
2024-02-06T16:05:57.448Z,3.25
2024-02-06T16:08:24.078Z,3.67
2024-02-06T16:10:50.862Z,3.22
2024-02-06T16:13:19.867Z,3.75
2024-02-06T16:15:48.673Z,3.65
2024-02-06T16:18:16.624Z,3.53
2024-02-06T16:20:43.605Z,3.17
2024-02-06T16:23:10.487Z,3.97
2024-02-06T16:25:37.137Z,3.55
2024-02-06T16:28:03.967Z,3.10
2024-02-06T16:30:30.593Z,3.42
2024-02-06T16:32:57.237Z,3.28
2024-02-06T16:35:23.892Z,3.55
2024-02-06T16:37:50.665Z,3.85
2024-02-06T16:40:17.521Z,3.47
2024-02-06T16:42:45.133Z,3.53
2024-02-06T16:45:12.767Z,3.63
2024-02-06T16:47:39.646Z,3.53
2024-02-06T16:50:07.088Z,4.35
2024-02-06T16:52:33.891Z,3.53
2024-02-06T16:55:00.897Z,4.28
2024-02-06T16:57:27.517Z,4.38
2024-02-06T16:59:54.058Z,3.80
2024-02-06T17:02:21.158Z,3.78
2024-02-06T17:04:47.895Z,4.28
2024-02-06T17:07:14.802Z,4.10
2024-02-06T17:09:41.497Z,4.32
2024-02-06T17:12:08.126Z,4.13
2024-02-06T17:14:35.040Z,4.45
2024-02-06T17:17:01.654Z,4.40
2024-02-06T17:19:28.348Z,4.40
2024-02-06T17:21:55.130Z,4.60
2024-02-06T17:24:21.736Z,4.32
2024-02-06T17:26:48.460Z,4.30
2024-02-06T17:29:15.101Z,4.43
2024-02-06T17:31:41.923Z,4.15
2024-02-06T17:34:08.780Z,4.70
2024-02-06T17:36:39.669Z,4.35
2024-02-06T17:39:06.786Z,4.80
2024-02-06T17:41:33.401Z,4.80
2024-02-06T17:44:00.053Z,4.75
2024-02-06T17:46:26.835Z,5.30
2024-02-06T17:48:53.470Z,4.70
2024-02-06T17:51:20.035Z,4.05
2024-02-06T17:53:46.606Z,5.38
2024-02-06T17:56:13.168Z,4.28
2024-02-06T17:58:41.801Z,4.38
2024-02-06T18:01:09.743Z,5.03
2024-02-06T18:03:36.437Z,6.28
2024-02-06T18:06:03.839Z,4.95
2024-02-06T18:08:30.667Z,4.70
2024-02-06T18:10:57.484Z,6.28
2024-02-06T18:13:24.214Z,4.78
2024-02-06T18:15:50.858Z,5.32
2024-02-06T18:18:17.640Z,5.63
2024-02-06T18:20:44.268Z,5.07
2024-02-06T18:23:10.876Z,4.90
2024-02-06T18:25:37.530Z,5.53
2024-02-06T18:28:04.457Z,6.53
2024-02-06T18:30:31.089Z,7.35
2024-02-06T18:32:57.692Z,8.73
2024-02-06T18:35:24.392Z,9.95
2024-02-06T18:37:51.327Z,10.18
2024-02-06T18:40:18.189Z,10.82
2024-02-06T18:42:44.886Z,11.77
2024-02-06T18:45:11.563Z,12.07
2024-02-06T18:47:38.146Z,12.77
2024-02-06T18:50:05.105Z,13.07
2024-02-06T18:52:31.781Z,13.95
2024-02-06T18:54:58.426Z,15.07
2024-02-06T18:57:25.115Z,15.52
2024-02-06T18:59:51.715Z,15.32
2024-02-06T19:02:18.316Z,16.02
2024-02-06T19:04:45.032Z,16.65
2024-02-06T19:07:11.881Z,16.65
2024-02-06T19:09:38.732Z,17.48
2024-02-06T19:12:05.852Z,18.23
2024-02-06T19:14:33.140Z,18.25
2024-02-06T19:16:59.676Z,17.48
2024-02-06T19:19:26.490Z,17.50
2024-02-06T19:21:53.347Z,17.45
2024-02-06T19:24:20.079Z,18.02
2024-02-06T19:26:46.782Z,18.33
2024-02-06T19:29:13.602Z,18.42
2024-02-06T19:31:41.470Z,16.98
2024-02-06T19:34:08.734Z,18.55
2024-02-06T19:36:36.055Z,17.63
2024-02-06T19:39:03.944Z,18.80
2024-02-06T19:41:31.399Z,18.27
2024-02-06T19:43:59.491Z,18.48
2024-02-06T19:46:26.975Z,18.05
2024-02-06T19:48:54.511Z,16.88
2024-02-06T19:51:23.169Z,18.77
2024-02-06T19:53:50.014Z,17.17
2024-02-06T19:56:17.631Z,16.67
2024-02-06T19:58:44.440Z,17.80
2024-02-06T20:01:21.735Z,17.83
2024-02-06T20:03:48.581Z,18.05
2024-02-06T20:06:17.979Z,20.58
2024-02-06T20:08:45.999Z,19.77
2024-02-06T20:11:13.001Z,21.63
2024-02-06T20:13:39.914Z,23.08
2024-02-06T20:16:07.064Z,22.77
2024-02-06T20:18:33.833Z,24.83
2024-02-06T20:21:00.895Z,25.45
2024-02-06T20:23:29.430Z,26.92
2024-02-06T20:25:56.326Z,27.65
2024-02-06T20:28:23.061Z,28.25
2024-02-06T20:30:53.370Z,28.08
2024-02-06T20:33:20.012Z,30.58
2024-02-06T20:35:46.698Z,31.27
2024-02-06T20:38:13.281Z,30.58
2024-02-06T20:40:39.834Z,32.22
2024-02-06T20:43:06.601Z,31.38
2024-02-06T20:45:34.852Z,31.27
2024-02-06T20:48:04.761Z,32.45
2024-02-06T20:50:32.416Z,32.95
2024-02-06T20:52:59.092Z,31.45
2024-02-06T20:55:25.787Z,31.45
2024-02-06T20:57:52.520Z,32.78
2024-02-06T21:00:19.505Z,33.38
2024-02-06T21:02:46.778Z,32.20
2024-02-06T21:05:13.571Z,32.67
2024-02-06T21:07:40.369Z,30.48
2024-02-06T21:10:08.419Z,29.98
2024-02-06T21:12:35.131Z,31.17
2024-02-06T21:15:01.945Z,30.40
2024-02-06T21:17:30.883Z,28.85
2024-02-06T21:19:58.147Z,29.42
2024-02-06T21:22:24.919Z,29.08
2024-02-06T21:24:51.594Z,28.60
2024-02-06T21:27:18.192Z,25.05
2024-02-06T21:29:44.831Z,27.85
2024-02-06T21:32:11.455Z,27.42
2024-02-06T21:34:39.581Z,27.13
2024-02-06T21:37:06.247Z,28.40
2024-02-06T21:39:34.157Z,27.30
2024-02-06T21:42:01.206Z,27.17
2024-02-06T21:44:27.809Z,26.42
2024-02-06T21:46:54.556Z,27.10
2024-02-06T21:49:21.303Z,28.27
2024-02-06T21:51:48.080Z,25.95
2024-02-06T21:54:14.674Z,26.83
2024-02-06T21:56:42.045Z,28.38
2024-02-06T21:59:08.659Z,27.80
2024-02-06T22:01:35.331Z,28.02
2024-02-06T22:04:02.125Z,28.80
2024-02-06T22:06:28.798Z,26.88
2024-02-06T22:08:55.643Z,27.08
2024-02-06T22:11:24.232Z,28.02
2024-02-06T22:13:50.915Z,29.58
2024-02-06T22:16:17.562Z,26.63
2024-02-06T22:18:44.178Z,26.27
2024-02-06T22:21:11.068Z,26.20
2024-02-06T22:23:37.783Z,26.23
2024-02-06T22:26:04.486Z,26.75
2024-02-06T22:28:31.739Z,26.92
2024-02-06T22:30:58.364Z,25.67
2024-02-06T22:33:25.100Z,25.33
2024-02-06T22:35:51.781Z,25.65
2024-02-06T22:38:18.493Z,25.67
2024-02-06T22:40:46.445Z,23.40
2024-02-06T22:43:13.542Z,25.02
2024-02-06T22:45:40.119Z,24.30
2024-02-06T22:48:07.186Z,22.92
2024-02-06T22:50:34.560Z,24.70
2024-02-06T22:53:01.125Z,23.05
2024-02-06T22:55:27.723Z,23.48
2024-02-06T22:57:54.276Z,21.92
2024-02-06T23:00:30.290Z,23.25
2024-02-06T23:02:58.579Z,22.50
2024-02-06T23:05:27.103Z,22.63
2024-02-06T23:07:54.776Z,21.88
2024-02-06T23:10:21.591Z,21.65
2024-02-06T23:12:49.286Z,22.73
2024-02-06T23:15:16.993Z,21.95
2024-02-06T23:17:44.755Z,19.75
2024-02-06T23:20:11.824Z,21.52
2024-02-06T23:22:38.982Z,20.13
2024-02-06T23:25:06.735Z,19.75
2024-02-06T23:27:33.379Z,20.48
2024-02-06T23:30:00.721Z,20.42
2024-02-06T23:32:27.894Z,18.50
2024-02-06T23:34:56.882Z,18.95
2024-02-06T23:37:26.167Z,20.25
2024-02-06T23:39:53.608Z,19.38
2024-02-06T23:42:20.253Z,18.83
2024-02-06T23:44:46.889Z,18.55
2024-02-06T23:47:13.920Z,19.17
2024-02-06T23:49:40.940Z,19.17
2024-02-06T23:52:07.703Z,18.15
2024-02-06T23:54:35.393Z,18.08
2024-02-06T23:57:02.028Z,17.98
2024-02-06T23:59:29.159Z,17.48
